sensor_id;sensor_type;location;lat;lon;timestamp;temperature;humidity
41678;DHT22;27364;49.026;8.712;2022-12-29T00:01:22;12.90;99.90
41678;DHT22;27364;49.026;8.712;2022-12-29T00:03:48;12.80;99.90
41678;DHT22;27364;49.026;8.712;2022-12-29T00:06:14;12.80;99.90
41678;DHT22;27364;49.026;8.712;2022-12-29T00:08:39;12.80;99.90
41678;DHT22;27364;49.026;8.712;2022-12-29T00:11:15;12.70;99.90
41678;DHT22;27364;49.026;8.712;2022-12-29T00:13:42;12.70;99.90
41678;DHT22;27364;49.026;8.712;2022-12-29T00:16:43;12.70;99.90
41678;DHT22;27364;49.026;8.712;2022-12-29T00:19:10;12.80;99.90
41678;DHT22;27364;49.026;8.712;2022-12-29T00:21:57;12.70;99.90
41678;DHT22;27364;49.026;8.712;2022-12-29T00:24:45;12.60;99.90
41678;DHT22;27364;49.026;8.712;2022-12-29T00:27:30;12.60;99.90
41678;DHT22;27364;49.026;8.712;2022-12-29T00:30:17;12.60;99.90
41678;DHT22;27364;49.026;8.712;2022-12-29T00:33:12;12.50;99.90
41678;DHT22;27364;49.026;8.712;2022-12-29T00:36:20;12.50;99.90
41678;DHT22;27364;49.026;8.712;2022-12-29T00:38:49;12.60;99.90
41678;DHT22;27364;49.026;8.712;2022-12-29T00:41:35;12.70;99.90
41678;DHT22;27364;49.026;8.712;2022-12-29T00:44:19;12.70;99.90
41678;DHT22;27364;49.026;8.712;2022-12-29T00:46:44;12.70;99.90
41678;DHT22;27364;49.026;8.712;2022-12-29T00:49:12;12.80;99.90
41678;DHT22;27364;49.026;8.712;2022-12-29T00:51:58;12.80;99.90
41678;DHT22;27364;49.026;8.712;2022-12-29T00:54:23;12.90;99.90
41678;DHT22;27364;49.026;8.712;2022-12-29T00:56:50;12.80;99.90
41678;DHT22;27364;49.026;8.712;2022-12-29T00:59:17;12.80;99.90
41678;DHT22;27364;49.026;8.712;2022-12-29T01:01:43;12.90;99.90
41678;DHT22;27364;49.026;8.712;2022-12-29T01:04:09;12.80;99.90
41678;DHT22;27364;49.026;8.712;2022-12-29T01:06:36;12.90;99.90
41678;DHT22;27364;49.026;8.712;2022-12-29T01:09:03;12.80;99.90
41678;DHT22;27364;49.026;8.712;2022-12-29T01:11:47;12.80;99.90
41678;DHT22;27364;49.026;8.712;2022-12-29T01:14:13;12.70;99.90
41678;DHT22;27364;49.026;8.712;2022-12-29T01:16:39;12.60;99.90
41678;DHT22;27364;49.026;8.712;2022-12-29T01:19:05;12.50;99.90
41678;DHT22;27364;49.026;8.712;2022-12-29T01:21:30;12.30;99.90
41678;DHT22;27364;49.026;8.712;2022-12-29T01:23:56;12.30;99.90
41678;DHT22;27364;49.026;8.712;2022-12-29T01:26:22;12.20;99.90
41678;DHT22;27364;49.026;8.712;2022-12-29T01:28:47;12.00;99.90
41678;DHT22;27364;49.026;8.712;2022-12-29T01:31:14;11.80;99.90
41678;DHT22;27364;49.026;8.712;2022-12-29T01:33:40;11.90;99.90
41678;DHT22;27364;49.026;8.712;2022-12-29T01:36:08;11.80;99.90
41678;DHT22;27364;49.026;8.712;2022-12-29T01:38:35;11.80;99.90
41678;DHT22;27364;49.026;8.712;2022-12-29T01:41:01;11.80;99.90
41678;DHT22;27364;49.026;8.712;2022-12-29T01:48:47;11.70;99.90
41678;DHT22;27364;49.026;8.712;2022-12-29T01:51:13;11.60;99.90
41678;DHT22;27364;49.026;8.712;2022-12-29T01:53:39;11.50;99.90
41678;DHT22;27364;49.026;8.712;2022-12-29T01:56:07;11.50;99.90
41678;DHT22;27364;49.026;8.712;2022-12-29T01:58:39;11.40;99.90
41678;DHT22;27364;49.026;8.712;2022-12-29T02:01:05;11.50;99.90
41678;DHT22;27364;49.026;8.712;2022-12-29T02:03:30;11.50;99.90
41678;DHT22;27364;49.026;8.712;2022-12-29T02:06:08;11.70;99.90
41678;DHT22;27364;49.026;8.712;2022-12-29T02:08:36;11.70;99.90
41678;DHT22;27364;49.026;8.712;2022-12-29T02:11:03;11.70;99.90
41678;DHT22;27364;49.026;8.712;2022-12-29T02:13:29;11.70;99.90
41678;DHT22;27364;49.026;8.712;2022-12-29T02:21:25;11.90;99.90
41678;DHT22;27364;49.026;8.712;2022-12-29T02:32:30;12.00;99.90
41678;DHT22;27364;49.026;8.712;2022-12-29T02:35:15;12.00;99.90
41678;DHT22;27364;49.026;8.712;2022-12-29T02:37:58;12.10;99.90
41678;DHT22;27364;49.026;8.712;2022-12-29T02:40:36;12.10;99.90
41678;DHT22;27364;49.026;8.712;2022-12-29T02:43:26;12.10;99.90
41678;DHT22;27364;49.026;8.712;2022-12-29T02:45:58;12.10;99.90
41678;DHT22;27364;49.026;8.712;2022-12-29T02:48:38;12.00;99.90
41678;DHT22;27364;49.026;8.712;2022-12-29T02:51:10;11.90;99.90
41678;DHT22;27364;49.026;8.712;2022-12-29T02:53:38;12.00;99.90
41678;DHT22;27364;49.026;8.712;2022-12-29T02:56:23;11.90;99.90
41678;DHT22;27364;49.026;8.712;2022-12-29T02:58:48;12.10;99.90
41678;DHT22;27364;49.026;8.712;2022-12-29T03:01:33;12.10;99.90
41678;DHT22;27364;49.026;8.712;2022-12-29T03:04:36;12.20;99.90
41678;DHT22;27364;49.026;8.712;2022-12-29T03:12:30;12.40;99.90
41678;DHT22;27364;49.026;8.712;2022-12-29T03:15:28;12.50;99.90
41678;DHT22;27364;49.026;8.712;2022-12-29T03:18:20;12.40;99.90
41678;DHT22;27364;49.026;8.712;2022-12-29T03:20:58;12.40;99.90
41678;DHT22;27364;49.026;8.712;2022-12-29T03:23:27;12.30;99.90
41678;DHT22;27364;49.026;8.712;2022-12-29T03:25:55;12.30;99.90
41678;DHT22;27364;49.026;8.712;2022-12-29T03:28:42;12.30;99.90
41678;DHT22;27364;49.026;8.712;2022-12-29T03:31:11;12.30;99.90
41678;DHT22;27364;49.026;8.712;2022-12-29T03:33:39;12.30;99.90
41678;DHT22;27364;49.026;8.712;2022-12-29T03:36:09;12.20;99.90
41678;DHT22;27364;49.026;8.712;2022-12-29T03:38:42;12.20;99.90
41678;DHT22;27364;49.026;8.712;2022-12-29T03:41:12;12.20;99.90
41678;DHT22;27364;49.026;8.712;2022-12-29T03:43:39;12.30;99.90
41678;DHT22;27364;49.026;8.712;2022-12-29T03:46:05;12.30;99.90
41678;DHT22;27364;49.026;8.712;2022-12-29T03:48:31;12.30;99.90
41678;DHT22;27364;49.026;8.712;2022-12-29T03:50:58;12.40;99.90
41678;DHT22;27364;49.026;8.712;2022-12-29T03:53:24;12.30;99.90
41678;DHT22;27364;49.026;8.712;2022-12-29T03:55:49;12.20;99.90
41678;DHT22;27364;49.026;8.712;2022-12-29T03:58:15;12.20;99.90
41678;DHT22;27364;49.026;8.712;2022-12-29T04:00:41;12.30;99.90
41678;DHT22;27364;49.026;8.712;2022-12-29T04:03:06;12.30;99.90
41678;DHT22;27364;49.026;8.712;2022-12-29T04:05:32;12.40;99.90
41678;DHT22;27364;49.026;8.712;2022-12-29T04:07:57;12.40;99.90
41678;DHT22;27364;49.026;8.712;2022-12-29T04:10:23;12.50;99.90
41678;DHT22;27364;49.026;8.712;2022-12-29T04:12:48;12.40;99.90
41678;DHT22;27364;49.026;8.712;2022-12-29T04:15:14;12.50;99.90
41678;DHT22;27364;49.026;8.712;2022-12-29T04:17:39;12.60;99.90
41678;DHT22;27364;49.026;8.712;2022-12-29T04:20:05;12.60;99.90
41678;DHT22;27364;49.026;8.712;2022-12-29T04:22:56;12.50;99.90
41678;DHT22;27364;49.026;8.712;2022-12-29T04:25:22;12.40;99.90
41678;DHT22;27364;49.026;8.712;2022-12-29T04:27:47;12.60;99.90
41678;DHT22;27364;49.026;8.712;2022-12-29T04:30:13;12.40;99.90
41678;DHT22;27364;49.026;8.712;2022-12-29T04:32:38;12.40;99.90
41678;DHT22;27364;49.026;8.712;2022-12-29T04:35:04;12.50;99.90
41678;DHT22;27364;49.026;8.712;2022-12-29T04:37:30;12.60;99.90
41678;DHT22;27364;49.026;8.712;2022-12-29T04:39:55;12.70;99.90
41678;DHT22;27364;49.026;8.712;2022-12-29T04:42:21;12.60;99.90
41678;DHT22;27364;49.026;8.712;2022-12-29T04:44:46;12.50;99.90
41678;DHT22;27364;49.026;8.712;2022-12-29T04:47:12;12.50;99.90
41678;DHT22;27364;49.026;8.712;2022-12-29T04:49:37;12.40;99.90
41678;DHT22;27364;49.026;8.712;2022-12-29T04:52:03;12.60;99.90
41678;DHT22;27364;49.026;8.712;2022-12-29T04:54:29;12.50;99.90
41678;DHT22;27364;49.026;8.712;2022-12-29T04:56:54;12.60;99.90
41678;DHT22;27364;49.026;8.712;2022-12-29T04:59:20;12.60;99.90
41678;DHT22;27364;49.026;8.712;2022-12-29T05:01:45;12.60;99.90
41678;DHT22;27364;49.026;8.712;2022-12-29T05:04:11;12.60;99.90
41678;DHT22;27364;49.026;8.712;2022-12-29T05:06:36;12.60;99.90
41678;DHT22;27364;49.026;8.712;2022-12-29T05:09:02;12.60;99.90
41678;DHT22;27364;49.026;8.712;2022-12-29T05:11:28;12.60;99.90
41678;DHT22;27364;49.026;8.712;2022-12-29T05:13:53;12.70;99.90
41678;DHT22;27364;49.026;8.712;2022-12-29T05:16:18;12.60;99.90
41678;DHT22;27364;49.026;8.712;2022-12-29T05:18:44;12.60;99.90
41678;DHT22;27364;49.026;8.712;2022-12-29T05:21:09;12.70;99.90
41678;DHT22;27364;49.026;8.712;2022-12-29T05:23:35;12.70;99.90
41678;DHT22;27364;49.026;8.712;2022-12-29T05:26:01;12.70;99.90
41678;DHT22;27364;49.026;8.712;2022-12-29T05:28:26;12.70;99.90
41678;DHT22;27364;49.026;8.712;2022-12-29T05:30:52;12.70;99.90
41678;DHT22;27364;49.026;8.712;2022-12-29T05:33:18;12.70;99.90
41678;DHT22;27364;49.026;8.712;2022-12-29T05:35:44;12.70;99.90
41678;DHT22;27364;49.026;8.712;2022-12-29T05:38:10;12.80;99.90
41678;DHT22;27364;49.026;8.712;2022-12-29T05:40:35;12.80;99.90
41678;DHT22;27364;49.026;8.712;2022-12-29T05:43:01;12.80;99.90
41678;DHT22;27364;49.026;8.712;2022-12-29T05:45:26;12.80;99.90
41678;DHT22;27364;49.026;8.712;2022-12-29T05:47:52;12.80;99.90
41678;DHT22;27364;49.026;8.712;2022-12-29T05:50:17;12.90;99.90
41678;DHT22;27364;49.026;8.712;2022-12-29T05:52:43;12.90;99.90
41678;DHT22;27364;49.026;8.712;2022-12-29T05:55:09;12.90;99.90
41678;DHT22;27364;49.026;8.712;2022-12-29T05:57:34;12.90;99.90
41678;DHT22;27364;49.026;8.712;2022-12-29T06:00:00;12.90;99.90
41678;DHT22;27364;49.026;8.712;2022-12-29T06:02:25;13.00;99.90
41678;DHT22;27364;49.026;8.712;2022-12-29T06:04:51;12.90;99.90
41678;DHT22;27364;49.026;8.712;2022-12-29T06:07:16;12.90;99.90
41678;DHT22;27364;49.026;8.712;2022-12-29T06:09:42;12.80;99.90
41678;DHT22;27364;49.026;8.712;2022-12-29T06:12:07;12.80;99.90
41678;DHT22;27364;49.026;8.712;2022-12-29T06:14:33;12.80;99.90
41678;DHT22;27364;49.026;8.712;2022-12-29T06:16:58;12.90;99.90
41678;DHT22;27364;49.026;8.712;2022-12-29T06:19:25;12.90;99.90
41678;DHT22;27364;49.026;8.712;2022-12-29T06:21:50;12.80;99.90
41678;DHT22;27364;49.026;8.712;2022-12-29T06:24:17;12.80;99.90
41678;DHT22;27364;49.026;8.712;2022-12-29T06:26:43;13.00;99.90
41678;DHT22;27364;49.026;8.712;2022-12-29T06:29:08;13.00;99.90
41678;DHT22;27364;49.026;8.712;2022-12-29T06:31:34;13.00;99.90
41678;DHT22;27364;49.026;8.712;2022-12-29T06:34:00;12.90;99.90
41678;DHT22;27364;49.026;8.712;2022-12-29T06:36:25;12.90;99.90
41678;DHT22;27364;49.026;8.712;2022-12-29T06:38:51;12.80;99.90
41678;DHT22;27364;49.026;8.712;2022-12-29T06:41:18;12.90;99.90
41678;DHT22;27364;49.026;8.712;2022-12-29T06:43:44;13.00;99.90
41678;DHT22;27364;49.026;8.712;2022-12-29T06:46:09;13.00;99.90
41678;DHT22;27364;49.026;8.712;2022-12-29T06:48:35;13.00;99.90
41678;DHT22;27364;49.026;8.712;2022-12-29T06:51:00;13.10;99.90
41678;DHT22;27364;49.026;8.712;2022-12-29T06:53:26;13.10;99.90
41678;DHT22;27364;49.026;8.712;2022-12-29T06:55:51;13.20;99.90
41678;DHT22;27364;49.026;8.712;2022-12-29T06:58:17;13.10;99.90
41678;DHT22;27364;49.026;8.712;2022-12-29T07:00:43;13.10;99.90
41678;DHT22;27364;49.026;8.712;2022-12-29T07:03:09;13.10;99.90
41678;DHT22;27364;49.026;8.712;2022-12-29T07:05:34;13.10;99.90
41678;DHT22;27364;49.026;8.712;2022-12-29T07:08:00;13.10;99.90
41678;DHT22;27364;49.026;8.712;2022-12-29T07:10:25;13.10;99.90
41678;DHT22;27364;49.026;8.712;2022-12-29T07:12:51;13.20;99.90
41678;DHT22;27364;49.026;8.712;2022-12-29T07:15:16;13.20;99.90
41678;DHT22;27364;49.026;8.712;2022-12-29T07:17:42;13.10;99.90
41678;DHT22;27364;49.026;8.712;2022-12-29T07:20:08;13.10;99.90
41678;DHT22;27364;49.026;8.712;2022-12-29T07:22:34;13.10;99.90
41678;DHT22;27364;49.026;8.712;2022-12-29T07:25:00;13.20;99.90
41678;DHT22;27364;49.026;8.712;2022-12-29T07:27:25;13.10;99.90
41678;DHT22;27364;49.026;8.712;2022-12-29T07:29:51;13.10;99.90
41678;DHT22;27364;49.026;8.712;2022-12-29T07:32:16;13.20;99.70
41678;DHT22;27364;49.026;8.712;2022-12-29T07:34:42;13.10;99.40
41678;DHT22;27364;49.026;8.712;2022-12-29T07:37:10;13.20;99.60
41678;DHT22;27364;49.026;8.712;2022-12-29T07:39:35;13.20;99.50
41678;DHT22;27364;49.026;8.712;2022-12-29T07:42:01;13.20;98.90
41678;DHT22;27364;49.026;8.712;2022-12-29T07:44:26;13.20;99.20
41678;DHT22;27364;49.026;8.712;2022-12-29T07:46:52;13.30;98.90
41678;DHT22;27364;49.026;8.712;2022-12-29T07:49:17;13.30;98.80
41678;DHT22;27364;49.026;8.712;2022-12-29T07:51:43;13.40;98.50
41678;DHT22;27364;49.026;8.712;2022-12-29T07:54:09;13.40;98.40
41678;DHT22;27364;49.026;8.712;2022-12-29T07:56:35;13.40;98.10
41678;DHT22;27364;49.026;8.712;2022-12-29T07:59:00;13.40;98.60
41678;DHT22;27364;49.026;8.712;2022-12-29T08:01:26;13.40;98.10
41678;DHT22;27364;49.026;8.712;2022-12-29T08:03:51;13.40;97.50
41678;DHT22;27364;49.026;8.712;2022-12-29T08:06:17;13.30;97.90
41678;DHT22;27364;49.026;8.712;2022-12-29T08:08:43;13.30;98.10
41678;DHT22;27364;49.026;8.712;2022-12-29T08:11:09;13.30;97.80
41678;DHT22;27364;49.026;8.712;2022-12-29T08:13:34;13.40;97.60
41678;DHT22;27364;49.026;8.712;2022-12-29T08:16:00;13.50;97.10
41678;DHT22;27364;49.026;8.712;2022-12-29T08:18:25;13.40;97.60
41678;DHT22;27364;49.026;8.712;2022-12-29T08:20:51;13.40;97.60
41678;DHT22;27364;49.026;8.712;2022-12-29T08:23:16;13.40;97.80
41678;DHT22;27364;49.026;8.712;2022-12-29T08:25:42;13.50;96.90
41678;DHT22;27364;49.026;8.712;2022-12-29T08:28:07;13.50;97.30
41678;DHT22;27364;49.026;8.712;2022-12-29T08:30:33;13.50;97.10
41678;DHT22;27364;49.026;8.712;2022-12-29T08:32:58;13.50;97.40
41678;DHT22;27364;49.026;8.712;2022-12-29T08:35:24;13.50;96.80
41678;DHT22;27364;49.026;8.712;2022-12-29T08:37:49;13.50;96.90
41678;DHT22;27364;49.026;8.712;2022-12-29T08:40:15;13.40;97.30
41678;DHT22;27364;49.026;8.712;2022-12-29T08:42:40;13.40;97.50
41678;DHT22;27364;49.026;8.712;2022-12-29T08:45:07;13.40;97.30
41678;DHT22;27364;49.026;8.712;2022-12-29T08:47:33;13.40;97.30
41678;DHT22;27364;49.026;8.712;2022-12-29T08:49:59;13.50;96.50
41678;DHT22;27364;49.026;8.712;2022-12-29T08:52:24;13.50;96.90
41678;DHT22;27364;49.026;8.712;2022-12-29T08:54:50;13.40;97.00
41678;DHT22;27364;49.026;8.712;2022-12-29T08:57:15;13.50;97.50
41678;DHT22;27364;49.026;8.712;2022-12-29T08:59:41;13.40;97.50
41678;DHT22;27364;49.026;8.712;2022-12-29T09:02:10;13.60;97.00
41678;DHT22;27364;49.026;8.712;2022-12-29T09:04:37;13.50;96.90
41678;DHT22;27364;49.026;8.712;2022-12-29T09:07:02;13.60;96.80
41678;DHT22;27364;49.026;8.712;2022-12-29T09:09:28;13.60;96.70
41678;DHT22;27364;49.026;8.712;2022-12-29T09:11:54;13.60;96.80
41678;DHT22;27364;49.026;8.712;2022-12-29T09:14:20;13.60;96.60
41678;DHT22;27364;49.026;8.712;2022-12-29T09:16:46;13.70;96.80
41678;DHT22;27364;49.026;8.712;2022-12-29T09:19:31;13.70;96.70
41678;DHT22;27364;49.026;8.712;2022-12-29T09:21:56;13.70;97.20
41678;DHT22;27364;49.026;8.712;2022-12-29T09:24:22;13.60;97.30
41678;DHT22;27364;49.026;8.712;2022-12-29T09:26:47;13.60;97.20
41678;DHT22;27364;49.026;8.712;2022-12-29T09:29:13;13.60;97.50
41678;DHT22;27364;49.026;8.712;2022-12-29T09:31:38;13.60;97.50
41678;DHT22;27364;49.026;8.712;2022-12-29T09:34:04;13.60;97.60
41678;DHT22;27364;49.026;8.712;2022-12-29T09:36:29;13.60;97.90
41678;DHT22;27364;49.026;8.712;2022-12-29T09:38:55;13.60;98.20
41678;DHT22;27364;49.026;8.712;2022-12-29T09:41:29;13.50;98.20
41678;DHT22;27364;49.026;8.712;2022-12-29T09:44:17;13.50;98.30
41678;DHT22;27364;49.026;8.712;2022-12-29T09:46:47;13.50;98.70
41678;DHT22;27364;49.026;8.712;2022-12-29T09:49:30;13.50;98.50
41678;DHT22;27364;49.026;8.712;2022-12-29T09:52:20;13.50;98.40
41678;DHT22;27364;49.026;8.712;2022-12-29T09:54:56;13.50;98.70
41678;DHT22;27364;49.026;8.712;2022-12-29T09:57:29;13.50;99.00
41678;DHT22;27364;49.026;8.712;2022-12-29T10:00:21;13.50;99.40
41678;DHT22;27364;49.026;8.712;2022-12-29T10:08:26;13.60;99.30
41678;DHT22;27364;49.026;8.712;2022-12-29T10:10:57;13.50;99.40
41678;DHT22;27364;49.026;8.712;2022-12-29T10:16:26;13.80;99.90
41678;DHT22;27364;49.026;8.712;2022-12-29T10:24:38;13.80;99.70
41678;DHT22;27364;49.026;8.712;2022-12-29T10:27:09;13.70;99.90
41678;DHT22;27364;49.026;8.712;2022-12-29T10:29:39;13.70;99.90
41678;DHT22;27364;49.026;8.712;2022-12-29T10:32:12;13.60;99.90
41678;DHT22;27364;49.026;8.712;2022-12-29T10:34:47;13.60;99.90
41678;DHT22;27364;49.026;8.712;2022-12-29T10:40:33;13.60;99.90
41678;DHT22;27364;49.026;8.712;2022-12-29T10:43:20;13.70;99.90
41678;DHT22;27364;49.026;8.712;2022-12-29T10:45:47;13.60;99.90
41678;DHT22;27364;49.026;8.712;2022-12-29T10:48:20;13.70;99.90
41678;DHT22;27364;49.026;8.712;2022-12-29T10:50:48;13.80;99.90
41678;DHT22;27364;49.026;8.712;2022-12-29T10:53:20;13.80;99.90
41678;DHT22;27364;49.026;8.712;2022-12-29T10:55:47;13.80;99.60
41678;DHT22;27364;49.026;8.712;2022-12-29T10:58:14;13.90;99.60
41678;DHT22;27364;49.026;8.712;2022-12-29T11:00:41;13.80;99.90
41678;DHT22;27364;49.026;8.712;2022-12-29T11:06:08;13.70;99.90
41678;DHT22;27364;49.026;8.712;2022-12-29T11:08:39;13.60;99.90
41678;DHT22;27364;49.026;8.712;2022-12-29T11:11:08;13.60;99.90
41678;DHT22;27364;49.026;8.712;2022-12-29T11:13:35;13.60;99.80
41678;DHT22;27364;49.026;8.712;2022-12-29T11:16:12;13.60;99.70
41678;DHT22;27364;49.026;8.712;2022-12-29T11:18:40;13.40;99.90
41678;DHT22;27364;49.026;8.712;2022-12-29T11:21:35;13.40;99.90
41678;DHT22;27364;49.026;8.712;2022-12-29T11:24:27;13.40;99.90
41678;DHT22;27364;49.026;8.712;2022-12-29T11:27:08;13.20;99.90
41678;DHT22;27364;49.026;8.712;2022-12-29T11:29:39;13.20;99.90
41678;DHT22;27364;49.026;8.712;2022-12-29T11:34:48;13.30;99.90
41678;DHT22;27364;49.026;8.712;2022-12-29T11:37:36;13.30;99.90
41678;DHT22;27364;49.026;8.712;2022-12-29T11:40:18;13.40;99.90
41678;DHT22;27364;49.026;8.712;2022-12-29T11:42:51;13.40;99.90
41678;DHT22;27364;49.026;8.712;2022-12-29T11:45:29;13.40;99.90
41678;DHT22;27364;49.026;8.712;2022-12-29T11:48:18;13.40;99.90
41678;DHT22;27364;49.026;8.712;2022-12-29T11:50:51;13.40;99.90
41678;DHT22;27364;49.026;8.712;2022-12-29T11:53:24;13.40;99.90
41678;DHT22;27364;49.026;8.712;2022-12-29T11:55:56;13.20;99.90
41678;DHT22;27364;49.026;8.712;2022-12-29T11:58:31;13.20;99.90
41678;DHT22;27364;49.026;8.712;2022-12-29T12:01:00;13.20;99.90
41678;DHT22;27364;49.026;8.712;2022-12-29T12:03:30;13.20;99.90
41678;DHT22;27364;49.026;8.712;2022-12-29T12:06:01;13.20;99.90
41678;DHT22;27364;49.026;8.712;2022-12-29T12:08:41;13.30;99.90
41678;DHT22;27364;49.026;8.712;2022-12-29T12:11:22;13.40;99.90
41678;DHT22;27364;49.026;8.712;2022-12-29T12:14:04;13.40;99.90
41678;DHT22;27364;49.026;8.712;2022-12-29T12:16:37;13.40;99.60
41678;DHT22;27364;49.026;8.712;2022-12-29T12:19:16;13.40;99.90
41678;DHT22;27364;49.026;8.712;2022-12-29T12:21:50;13.40;99.90
41678;DHT22;27364;49.026;8.712;2022-12-29T12:27:13;13.50;99.90
41678;DHT22;27364;49.026;8.712;2022-12-29T12:30:03;13.60;99.90
41678;DHT22;27364;49.026;8.712;2022-12-29T12:35:37;13.60;99.90
41678;DHT22;27364;49.026;8.712;2022-12-29T12:40:52;13.60;99.90
41678;DHT22;27364;49.026;8.712;2022-12-29T12:43:31;13.60;99.80
41678;DHT22;27364;49.026;8.712;2022-12-29T12:46:13;13.50;99.90
41678;DHT22;27364;49.026;8.712;2022-12-29T12:51:53;13.40;99.90
41678;DHT22;27364;49.026;8.712;2022-12-29T12:57:22;13.00;99.90
41678;DHT22;27364;49.026;8.712;2022-12-29T13:02:29;12.80;99.90
41678;DHT22;27364;49.026;8.712;2022-12-29T13:05:33;12.80;99.90
41678;DHT22;27364;49.026;8.712;2022-12-29T13:11:16;12.90;99.90
41678;DHT22;27364;49.026;8.712;2022-12-29T13:16:38;13.00;99.90
41678;DHT22;27364;49.026;8.712;2022-12-29T13:19:29;12.90;99.90
41678;DHT22;27364;49.026;8.712;2022-12-29T13:27:34;13.00;99.90
41678;DHT22;27364;49.026;8.712;2022-12-29T13:30:14;13.00;99.90
41678;DHT22;27364;49.026;8.712;2022-12-29T13:35:28;13.00;99.90
41678;DHT22;27364;49.026;8.712;2022-12-29T13:38:11;12.90;99.90
41678;DHT22;27364;49.026;8.712;2022-12-29T13:40:41;12.90;99.90
41678;DHT22;27364;49.026;8.712;2022-12-29T13:43:09;12.80;99.90
41678;DHT22;27364;49.026;8.712;2022-12-29T13:45:35;12.90;99.90
41678;DHT22;27364;49.026;8.712;2022-12-29T13:50:39;12.80;99.90
41678;DHT22;27364;49.026;8.712;2022-12-29T13:54:11;12.70;99.90
41678;DHT22;27364;49.026;8.712;2022-12-29T13:56:15;12.50;99.90
41678;DHT22;27364;49.026;8.712;2022-12-29T14:01:30;12.30;99.90
41678;DHT22;27364;49.026;8.712;2022-12-29T14:04:00;12.00;99.90
41678;DHT22;27364;49.026;8.712;2022-12-29T14:06:29;11.90;99.90
41678;DHT22;27364;49.026;8.712;2022-12-29T14:09:03;11.90;99.90
41678;DHT22;27364;49.026;8.712;2022-12-29T14:11:38;11.80;99.90
41678;DHT22;27364;49.026;8.712;2022-12-29T14:16:37;11.40;99.90
41678;DHT22;27364;49.026;8.712;2022-12-29T14:19:24;11.20;99.90
41678;DHT22;27364;49.026;8.712;2022-12-29T14:21:55;11.20;99.90
41678;DHT22;27364;49.026;8.712;2022-12-29T14:34:52;10.70;99.90
41678;DHT22;27364;49.026;8.712;2022-12-29T14:37:31;10.70;99.90
41678;DHT22;27364;49.026;8.712;2022-12-29T14:40:23;10.80;99.90
41678;DHT22;27364;49.026;8.712;2022-12-29T14:42:51;10.70;99.90
41678;DHT22;27364;49.026;8.712;2022-12-29T14:47:46;10.70;99.90
41678;DHT22;27364;49.026;8.712;2022-12-29T14:50:25;10.60;99.90
41678;DHT22;27364;49.026;8.712;2022-12-29T14:52:59;10.60;99.90
41678;DHT22;27364;49.026;8.712;2022-12-29T14:55:40;10.50;99.90
41678;DHT22;27364;49.026;8.712;2022-12-29T14:58:17;10.50;99.90
41678;DHT22;27364;49.026;8.712;2022-12-29T15:00:44;10.40;99.90
41678;DHT22;27364;49.026;8.712;2022-12-29T15:03:24;10.30;99.90
41678;DHT22;27364;49.026;8.712;2022-12-29T15:05:59;10.30;99.90
41678;DHT22;27364;49.026;8.712;2022-12-29T15:08:33;10.30;99.90
41678;DHT22;27364;49.026;8.712;2022-12-29T15:11:14;10.30;99.90
41678;DHT22;27364;49.026;8.712;2022-12-29T15:13:42;10.20;99.90
41678;DHT22;27364;49.026;8.712;2022-12-29T15:16:26;10.20;99.90
41678;DHT22;27364;49.026;8.712;2022-12-29T15:18:55;10.20;99.90
41678;DHT22;27364;49.026;8.712;2022-12-29T15:21:27;10.20;99.90
41678;DHT22;27364;49.026;8.712;2022-12-29T15:23:54;10.20;99.90
41678;DHT22;27364;49.026;8.712;2022-12-29T15:26:20;10.20;99.90
41678;DHT22;27364;49.026;8.712;2022-12-29T15:28:51;10.20;99.90
41678;DHT22;27364;49.026;8.712;2022-12-29T15:31:22;10.20;99.90
41678;DHT22;27364;49.026;8.712;2022-12-29T15:33:54;10.20;99.90
41678;DHT22;27364;49.026;8.712;2022-12-29T15:36:22;10.20;99.90
41678;DHT22;27364;49.026;8.712;2022-12-29T15:38:49;10.10;99.90
41678;DHT22;27364;49.026;8.712;2022-12-29T15:41:39;10.10;99.90
41678;DHT22;27364;49.026;8.712;2022-12-29T15:44:40;10.10;99.90
41678;DHT22;27364;49.026;8.712;2022-12-29T15:47:14;10.00;99.90
41678;DHT22;27364;49.026;8.712;2022-12-29T15:49:43;10.00;99.90
41678;DHT22;27364;49.026;8.712;2022-12-29T15:52:09;10.00;99.90
41678;DHT22;27364;49.026;8.712;2022-12-29T15:54:36;10.10;99.90
41678;DHT22;27364;49.026;8.712;2022-12-29T15:57:02;10.10;99.90
41678;DHT22;27364;49.026;8.712;2022-12-29T15:59:33;10.10;99.90
41678;DHT22;27364;49.026;8.712;2022-12-29T16:02:00;10.00;99.90
41678;DHT22;27364;49.026;8.712;2022-12-29T16:04:29;10.00;99.90
41678;DHT22;27364;49.026;8.712;2022-12-29T16:07:03;10.10;99.90
41678;DHT22;27364;49.026;8.712;2022-12-29T16:09:53;10.00;99.90
41678;DHT22;27364;49.026;8.712;2022-12-29T16:12:21;10.00;99.90
41678;DHT22;27364;49.026;8.712;2022-12-29T16:14:51;10.10;99.90
41678;DHT22;27364;49.026;8.712;2022-12-29T16:17:22;10.00;99.90
41678;DHT22;27364;49.026;8.712;2022-12-29T16:19:51;10.00;99.90
41678;DHT22;27364;49.026;8.712;2022-12-29T16:22:36;9.90;99.90
41678;DHT22;27364;49.026;8.712;2022-12-29T16:25:51;10.00;99.90
41678;DHT22;27364;49.026;8.712;2022-12-29T16:28:00;10.00;99.90
41678;DHT22;27364;49.026;8.712;2022-12-29T16:30:29;9.90;99.90
41678;DHT22;27364;49.026;8.712;2022-12-29T16:32:57;9.90;99.90
41678;DHT22;27364;49.026;8.712;2022-12-29T16:35:28;9.90;99.90
41678;DHT22;27364;49.026;8.712;2022-12-29T16:38:18;9.80;99.90
41678;DHT22;27364;49.026;8.712;2022-12-29T16:43:25;9.80;99.90
41678;DHT22;27364;49.026;8.712;2022-12-29T16:50:45;9.80;99.90
41678;DHT22;27364;49.026;8.712;2022-12-29T16:53:24;9.80;99.90
41678;DHT22;27364;49.026;8.712;2022-12-29T16:55:52;9.80;99.90
41678;DHT22;27364;49.026;8.712;2022-12-29T16:58:24;9.80;99.90
41678;DHT22;27364;49.026;8.712;2022-12-29T17:00:53;9.80;99.90
41678;DHT22;27364;49.026;8.712;2022-12-29T17:03:20;9.70;99.90
41678;DHT22;27364;49.026;8.712;2022-12-29T17:05:45;9.70;99.90
41678;DHT22;27364;49.026;8.712;2022-12-29T17:08:19;9.70;99.90
41678;DHT22;27364;49.026;8.712;2022-12-29T17:10:54;9.80;99.90
41678;DHT22;27364;49.026;8.712;2022-12-29T17:13:39;9.80;99.90
41678;DHT22;27364;49.026;8.712;2022-12-29T17:16:05;9.90;99.90
41678;DHT22;27364;49.026;8.712;2022-12-29T17:18:35;9.80;99.90
41678;DHT22;27364;49.026;8.712;2022-12-29T17:21:00;9.90;99.90
41678;DHT22;27364;49.026;8.712;2022-12-29T17:23:26;9.80;99.90
41678;DHT22;27364;49.026;8.712;2022-12-29T17:25:53;9.80;99.90
41678;DHT22;27364;49.026;8.712;2022-12-29T17:28:21;9.80;99.90
41678;DHT22;27364;49.026;8.712;2022-12-29T17:30:48;9.90;99.90
41678;DHT22;27364;49.026;8.712;2022-12-29T17:33:16;9.90;99.90
41678;DHT22;27364;49.026;8.712;2022-12-29T17:35:43;9.90;99.90
41678;DHT22;27364;49.026;8.712;2022-12-29T17:40:44;9.90;99.90
41678;DHT22;27364;49.026;8.712;2022-12-29T17:43:13;9.90;99.90
41678;DHT22;27364;49.026;8.712;2022-12-29T17:45:39;9.80;99.90